createdAt,value
2017-05-31T00:03:46.131Z,0
2017-05-31T00:14:00.897Z,0
2017-05-31T00:24:14.767Z,0
2017-05-31T00:34:29.332Z,0
2017-05-31T00:44:44.823Z,0
2017-05-31T00:54:59.081Z,0
2017-05-31T01:05:12.962Z,0
2017-05-31T01:15:28.409Z,0
2017-05-31T01:25:43.238Z,0
2017-05-31T01:35:57.447Z,0
2017-05-31T01:46:12.559Z,0
2017-05-31T01:56:28.121Z,0
2017-05-31T02:06:42.743Z,0
2017-05-31T02:16:57.053Z,0
2017-05-31T02:27:12.006Z,0
2017-05-31T02:37:25.900Z,4
2017-05-31T02:47:40.963Z,16
2017-05-31T02:57:56.483Z,56
2017-05-31T03:08:11.187Z,168
2017-05-31T03:18:25.300Z,424
2017-05-31T03:28:39.508Z,744
2017-05-31T03:38:54.998Z,1148
2017-05-31T03:49:10.201Z,1536
2017-05-31T03:59:25.283Z,2016
2017-05-31T04:09:39.925Z,2632
2017-05-31T04:19:54.740Z,3424
2017-05-31T04:30:09.954Z,4196
2017-05-31T04:40:24.632Z,4912
2017-05-31T04:50:38.851Z,5360
2017-05-31T05:00:52.809Z,7656
2017-05-31T05:11:07.026Z,6100
2017-05-31T05:21:22.775Z,10368
2017-05-31T05:31:38.027Z,12536
2017-05-31T05:41:52.610Z,14444
2017-05-31T05:52:06.824Z,9664
2017-05-31T06:02:20.972Z,14488
2017-05-31T06:12:35.916Z,23776
2017-05-31T06:22:50.170Z,29632
2017-05-31T06:33:06.052Z,34752
2017-05-31T06:43:20.120Z,29792
2017-05-31T06:53:35.932Z,29984
2017-05-31T07:03:51.670Z,47936
2017-05-31T07:14:06.262Z,35904
2017-05-31T07:24:20.832Z,53952
2017-05-31T07:34:35.901Z,21696
2017-05-31T07:44:51.512Z,62784
2017-05-31T07:55:05.448Z,65952
2017-05-31T08:05:19.513Z,60448
2017-05-31T08:15:35.023Z,25760
2017-05-31T08:25:50.095Z,71040
2017-05-31T08:36:04.392Z,18976
2017-05-31T08:46:19.995Z,86944
2017-05-31T08:56:35.660Z,35328
2017-05-31T09:06:49.823Z,35392
2017-05-31T09:17:04.259Z,24576
2017-05-31T09:27:20.045Z,24768
2017-05-31T09:37:34.405Z,101792
2017-05-31T09:47:49.617Z,20000
2017-05-31T09:58:04.539Z,102624
2017-05-31T10:08:19.982Z,23712
2017-05-31T10:18:35.323Z,25984
2017-05-31T10:28:50.637Z,65664
2017-05-31T10:39:05.884Z,19456
2017-05-31T10:49:21.221Z,7060
2017-05-31T10:59:36.866Z,27552
2017-05-31T11:09:51.357Z,50336
2017-05-31T11:20:06.202Z,98208
2017-05-31T11:30:21.633Z,106432
2017-05-31T11:40:36.051Z,107808
2017-05-31T11:50:50.899Z,96960
2017-05-31T12:01:06.556Z,39936
2017-05-31T12:11:20.830Z,11888
2017-05-31T12:21:36.241Z,4756
2017-05-31T12:31:51.449Z,3628
2017-05-31T12:42:06.671Z,5336
2017-05-31T12:52:20.989Z,6932
2017-05-31T13:02:36.211Z,17952
2017-05-31T13:12:50.399Z,44928
2017-05-31T13:23:05.886Z,24224
2017-05-31T13:33:20.613Z,9728
2017-05-31T13:43:35.235Z,6460
2017-05-31T13:53:49.209Z,6776
2017-05-31T14:04:03.833Z,7396
2017-05-31T14:14:18.765Z,8444
2017-05-31T14:24:34.073Z,12072
2017-05-31T14:34:49.579Z,28000
2017-05-31T14:45:04.859Z,69280
2017-05-31T14:55:18.951Z,38432
2017-05-31T15:05:33.910Z,71520
2017-05-31T15:15:49.669Z,68000
2017-05-31T15:26:03.660Z,40256
2017-05-31T15:36:18.387Z,36576
2017-05-31T15:46:32.574Z,38784
2017-05-31T15:56:47.364Z,41120
2017-05-31T16:07:02.291Z,51872
2017-05-31T16:17:16.770Z,21408
2017-05-31T16:27:32.197Z,20480
2017-05-31T16:37:48.045Z,32800
2017-05-31T16:48:03.259Z,28576
2017-05-31T16:58:18.192Z,24640
2017-05-31T17:08:32.155Z,33504
2017-05-31T17:18:47.156Z,25600
2017-05-31T17:29:02.634Z,22816
2017-05-31T17:39:17.121Z,19584
2017-05-31T17:49:32.182Z,15616
2017-05-31T17:59:47.770Z,9472
2017-05-31T18:10:02.196Z,7052
2017-05-31T18:20:17.446Z,6556
2017-05-31T18:30:31.413Z,5748
2017-05-31T18:40:46.072Z,4836
2017-05-31T18:51:00.704Z,3296
2017-05-31T19:01:15.831Z,2400
2017-05-31T19:11:29.953Z,1408
2017-05-31T19:21:44.491Z,1096
2017-05-31T19:31:58.546Z,632
2017-05-31T19:42:12.642Z,316
2017-05-31T19:52:28.104Z,124
2017-05-31T20:02:43.194Z,40
2017-05-31T20:12:56.983Z,12
2017-05-31T20:23:10.903Z,0
2017-05-31T20:33:25.742Z,0
2017-05-31T20:43:40.406Z,0
2017-05-31T20:53:55.286Z,0
2017-05-31T21:04:10.876Z,0
2017-05-31T21:14:26.010Z,0
2017-05-31T21:24:41.242Z,0
2017-05-31T21:34:55.242Z,0
2017-05-31T21:45:10.425Z,0
2017-05-31T21:55:24.864Z,0
2017-05-31T22:05:39.721Z,0
2017-05-31T22:15:54.960Z,0
2017-05-31T22:26:09.905Z,0
2017-05-31T22:36:25.559Z,0
2017-05-31T22:46:40.420Z,0
2017-05-31T22:56:54.793Z,0
2017-05-31T23:07:10.546Z,0
2017-05-31T23:17:24.508Z,0
2017-05-31T23:27:39.977Z,0
2017-05-31T23:37:54.180Z,0
2017-05-31T23:48:08.502Z,0
2017-05-31T23:58:24.053Z,0
